Time,TemperatureF,DewpointF,PressureIn,WindDirection,WindDirectionDegrees,WindSpeedMPH,WindSpeedGustMPH,Humidity,HourlyPrecipIn,Conditions,Clouds,dailyrainin,SoftwareType,DateUTC
2013-01-17 00:08:00,-999.0,-99.9,29.87,SSW,210,1.0,-999.0,-999,-99.99,,,0.00,weatherlink.com 1.10,2013-01-17 05:08:00,
2013-01-17 00:23:00,-999.0,-99.9,29.86,SSW,210,5.0,-999.0,-999,-99.99,,,0.00,weatherlink.com 1.10,2013-01-17 05:23:00,
2013-01-17 00:38:00,-999.0,-99.9,29.87,SSW,205,5.0,-999.0,-999,-99.99,,,0.00,weatherlink.com 1.10,2013-01-17 05:38:00,
2013-01-17 00:53:00,-999.0,-99.9,29.86,SW,220,4.0,-999.0,-999,-99.99,,,0.00,weatherlink.com 1.10,2013-01-17 05:53:00,
2013-01-17 01:08:00,-999.0,-99.9,29.86,SSW,210,6.0,-999.0,-999,-99.99,,,0.00,weatherlink.com 1.10,2013-01-17 06:08:00,
2013-01-17 01:23:00,-999.0,-99.9,29.87,SSW,210,6.0,-999.0,-999,-99.99,,,0.00,weatherlink.com 1.10,2013-01-17 06:23:00,
2013-01-17 01:39:00,-999.0,-99.9,29.87,SSW,210,2.0,-999.0,-999,-99.99,,,0.00,weatherlink.com 1.10,2013-01-17 06:39:00,
2013-01-17 01:54:00,-999.0,-99.9,29.87,SSW,210,2.0,-999.0,-999,-99.99,,,0.00,weatherlink.com 1.10,2013-01-17 06:54:00,
2013-01-17 02:09:00,-999.0,-99.9,29.87,SSW,210,3.0,-999.0,-999,-99.99,,,0.00,weatherlink.com 1.10,2013-01-17 07:09:00,
2013-01-17 02:24:00,-999.0,-99.9,29.87,SSW,210,1.0,-999.0,-999,-99.99,,,0.00,weatherlink.com 1.10,2013-01-17 07:24:00,
2013-01-17 02:38:00,-999.0,-99.9,29.87,SSW,210,2.0,-999.0,-999,-99.99,,,0.00,weatherlink.com 1.10,2013-01-17 07:38:00,
2013-01-17 02:54:00,-999.0,-99.9,29.88,SSW,210,0.0,-999.0,-999,-99.99,,,0.00,weatherlink.com 1.10,2013-01-17 07:54:00,
2013-01-17 03:09:00,-999.0,-99.9,29.86,SSW,210,2.0,-999.0,-999,-99.99,,,0.00,weatherlink.com 1.10,2013-01-17 08:09:00,
2013-01-17 03:24:00,-999.0,-99.9,29.87,SSW,210,1.0,-999.0,-999,-99.99,,,0.00,weatherlink.com 1.10,2013-01-17 08:24:00,
2013-01-17 03:38:00,-999.0,-99.9,29.86,SSW,210,1.0,-999.0,-999,-99.99,,,0.00,weatherlink.com 1.10,2013-01-17 08:38:00,
2013-01-17 03:53:00,-999.0,-99.9,29.87,SSW,210,3.0,-999.0,-999,-99.99,,,0.00,weatherlink.com 1.10,2013-01-17 08:53:00,
2013-01-17 04:08:00,-999.0,-99.9,29.87,SSW,210,0.0,-999.0,-999,-99.99,,,0.00,weatherlink.com 1.10,2013-01-17 09:08:00,
2013-01-17 04:24:00,-999.0,-99.9,29.88,SSW,210,1.0,-999.0,-999,-99.99,,,0.00,weatherlink.com 1.10,2013-01-17 09:24:00,
2013-01-17 04:39:00,-999.0,-99.9,29.88,SSW,210,0.0,-999.0,-999,-99.99,,,0.00,weatherlink.com 1.10,2013-01-17 09:39:00,
2013-01-17 04:53:00,-999.0,-99.9,29.88,SSW,210,0.0,-999.0,-999,-99.99,,,0.00,weatherlink.com 1.10,2013-01-17 09:53:00,
2013-01-17 05:08:00,-999.0,-99.9,29.88,SSW,210,2.0,-999.0,-999,-99.99,,,0.00,weatherlink.com 1.10,2013-01-17 10:08:00,
2013-01-17 05:24:00,-999.0,-99.9,29.87,SSW,210,0.0,-999.0,-999,-99.99,,,0.00,weatherlink.com 1.10,2013-01-17 10:24:00,
2013-01-17 05:38:00,-999.0,-99.9,29.88,SSW,210,1.0,-999.0,-999,-99.99,,,0.00,weatherlink.com 1.10,2013-01-17 10:38:00,
2013-01-17 05:54:00,-999.0,-99.9,29.89,SSW,210,0.0,-999.0,-999,-99.99,,,0.00,weatherlink.com 1.10,2013-01-17 10:54:00,
2013-01-17 06:09:00,-999.0,-99.9,29.90,SSW,210,3.0,-999.0,-999,-99.99,,,0.00,weatherlink.com 1.10,2013-01-17 11:09:00,
2013-01-17 06:24:00,-999.0,-99.9,29.91,SW,214,0.0,-999.0,-999,-99.99,,,0.00,weatherlink.com 1.10,2013-01-17 11:24:00,
2013-01-17 06:39:00,-999.0,-99.9,29.91,SW,214,2.0,-999.0,-999,-99.99,,,0.00,weatherlink.com 1.10,2013-01-17 11:39:00,
2013-01-17 06:54:00,-999.0,-99.9,29.91,SW,214,1.0,-999.0,-999,-99.99,,,0.00,weatherlink.com 1.10,2013-01-17 11:54:00,
2013-01-17 07:09:00,-999.0,-99.9,29.91,SW,214,1.0,-999.0,-999,-99.99,,,0.00,weatherlink.com 1.10,2013-01-17 12:09:00,
2013-01-17 07:24:00,-999.0,-99.9,29.93,SW,214,2.0,-999.0,-999,-99.99,,,0.00,weatherlink.com 1.10,2013-01-17 12:24:00,
2013-01-17 07:38:00,-999.0,-99.9,29.93,SW,214,3.0,-999.0,-999,-99.99,,,0.00,weatherlink.com 1.10,2013-01-17 12:38:00,
2013-01-17 07:53:00,-999.0,-99.9,29.96,SW,214,4.0,-999.0,-999,-99.99,,,0.00,weatherlink.com 1.10,2013-01-17 12:53:00,
2013-01-17 08:09:00,-999.0,-99.9,29.96,SW,214,4.0,-999.0,-999,-99.99,,,0.00,weatherlink.com 1.10,2013-01-17 13:09:00,
2013-01-17 08:23:00,-999.0,-99.9,29.97,SSW,205,6.0,-999.0,-999,-99.99,,,0.00,weatherlink.com 1.10,2013-01-17 13:23:00,
2013-01-17 08:39:00,-999.0,-99.9,29.97,SSW,205,4.0,-999.0,-999,-99.99,,,0.00,weatherlink.com 1.10,2013-01-17 13:39:00,
2013-01-17 08:54:00,-999.0,-99.9,29.97,SSW,194,4.0,-999.0,-999,-99.99,,,0.00,weatherlink.com 1.10,2013-01-17 13:54:00,
2013-01-17 09:09:00,-999.0,-99.9,29.99,SW,217,2.0,-999.0,-999,-99.99,,,0.00,weatherlink.com 1.10,2013-01-17 14:09:00,
2013-01-17 09:24:00,-999.0,-99.9,29.99,SW,216,5.0,-999.0,-999,-99.99,,,0.00,weatherlink.com 1.10,2013-01-17 14:24:00,
2013-01-17 09:39:00,38.9,7.0,29.99,SSW,205,1.0,-999.0,27,-99.99,,,0.00,weatherlink.com 1.10,2013-01-17 14:39:00,
2013-01-17 09:54:00,38.6,15.0,29.99,WSW,245,3.0,-999.0,38,-99.99,,,0.00,weatherlink.com 1.10,2013-01-17 14:54:00,
2013-01-17 10:09:00,38.6,21.0,30.00,WSW,258,1.0,-999.0,50,-99.99,,,0.00,weatherlink.com 1.10,2013-01-17 15:09:00,
2013-01-17 10:24:00,39.9,25.0,30.00,SSW,210,1.0,-999.0,56,-99.99,,,0.00,weatherlink.com 1.10,2013-01-17 15:24:00,
2013-01-17 10:39:00,40.2,26.0,30.00,West,280,0.0,-999.0,58,-99.99,,,0.00,weatherlink.com 1.10,2013-01-17 15:39:00,
2013-01-17 10:54:00,41.0,29.0,29.99,SSW,210,9.0,-999.0,62,-99.99,,,0.00,weatherlink.com 1.10,2013-01-17 15:54:00,
2013-01-17 11:09:00,41.1,30.0,29.99,SW,216,0.0,-999.0,64,-99.99,,,0.00,weatherlink.com 1.10,2013-01-17 16:09:00,
2013-01-17 11:24:00,41.8,30.0,29.98,SSW,210,2.0,-999.0,64,-99.99,,,0.00,weatherlink.com 1.10,2013-01-17 16:24:00,
2013-01-17 11:39:00,41.7,31.0,29.97,SW,236,0.0,-999.0,66,-99.99,,,0.00,weatherlink.com 1.10,2013-01-17 16:39:00,
2013-01-17 11:57:00,41.4,31.0,29.97,WSW,245,2.0,-999.0,66,-99.99,,,0.00,weatherlink.com 1.10,2013-01-17 16:57:00,
2013-01-17 12:09:00,41.8,31.0,29.97,SW,229,4.0,-999.0,66,-99.99,,,0.00,weatherlink.com 1.10,2013-01-17 17:09:00,
2013-01-17 12:24:00,42.2,31.0,29.96,SSW,210,1.0,-999.0,65,-99.99,,,0.00,weatherlink.com 1.10,2013-01-17 17:24:00,
2013-01-17 12:39:00,43.6,32.0,29.97,West,279,4.0,-999.0,65,-99.99,,,0.00,weatherlink.com 1.10,2013-01-17 17:39:00,
2013-01-17 12:54:00,42.7,32.0,29.98,SW,224,7.0,-999.0,65,-99.99,,,0.00,weatherlink.com 1.10,2013-01-17 17:54:00,
2013-01-17 13:09:00,42.3,31.0,29.98,West,279,3.0,-999.0,65,-99.99,,,0.00,weatherlink.com 1.10,2013-01-17 18:09:00,
2013-01-17 13:24:00,43.0,32.0,29.99,SW,217,4.0,-999.0,65,-99.99,,,0.00,weatherlink.com 1.10,2013-01-17 18:24:00,
2013-01-17 13:39:00,43.7,33.0,29.99,WSW,246,0.0,-999.0,65,-99.99,,,0.00,weatherlink.com 1.10,2013-01-17 18:39:00,
2013-01-17 13:54:00,43.8,33.0,29.99,WSW,257,1.0,-999.0,65,-99.99,,,0.00,weatherlink.com 1.10,2013-01-17 18:54:00,
2013-01-17 14:09:00,42.6,31.0,29.99,SW,220,0.0,-999.0,65,-99.99,,,0.00,weatherlink.com 1.10,2013-01-17 19:09:00,
2013-01-17 14:24:00,43.0,32.0,30.00,NNW,333,0.0,-999.0,65,-99.99,,,0.00,weatherlink.com 1.10,2013-01-17 19:24:00,
2013-01-17 14:39:00,42.4,31.0,30.00,SW,223,0.0,-999.0,65,-99.99,,,0.00,weatherlink.com 1.10,2013-01-17 19:39:00,
2013-01-17 14:54:00,42.2,31.0,30.00,NW,305,0.0,-999.0,66,-99.99,,,0.00,weatherlink.com 1.10,2013-01-17 19:54:00,
2013-01-17 15:09:00,42.2,31.0,30.00,WNW,301,0.0,-999.0,66,-99.99,,,0.00,weatherlink.com 1.10,2013-01-17 20:09:00,
2013-01-17 15:24:00,42.2,31.0,30.00,WNW,286,0.0,-999.0,65,-99.99,,,0.00,weatherlink.com 1.10,2013-01-17 20:24:00,
2013-01-17 15:39:00,42.1,31.0,30.01,WNW,289,0.0,-999.0,65,-99.99,,,0.00,weatherlink.com 1.10,2013-01-17 20:39:00,
2013-01-17 15:54:00,42.1,31.0,30.02,WNW,295,0.0,-999.0,64,-99.99,,,0.00,weatherlink.com 1.10,2013-01-17 20:54:00,
2013-01-17 16:09:00,41.9,30.0,30.02,WNW,295,1.0,-999.0,63,-99.99,,,0.00,weatherlink.com 1.10,2013-01-17 21:09:00,
2013-01-17 16:24:00,41.5,30.0,30.02,WNW,287,0.0,-999.0,64,-99.99,,,0.00,weatherlink.com 1.10,2013-01-17 21:24:00,
2013-01-17 16:39:00,41.1,30.0,30.03,WNW,287,0.0,-999.0,64,-99.99,,,0.00,weatherlink.com 1.10,2013-01-17 21:39:00,
2013-01-17 17:09:00,40.1,29.0,30.04,WNW,284,0.0,-999.0,65,-99.99,,,0.00,weatherlink.com 1.10,2013-01-17 22:09:00,
2013-01-17 17:24:00,39.7,29.0,30.05,WNW,284,0.0,-999.0,65,-99.99,,,0.00,weatherlink.com 1.10,2013-01-17 22:24:00,
2013-01-17 17:39:00,39.1,29.0,30.04,WNW,284,0.0,-999.0,66,-99.99,,,0.00,weatherlink.com 1.10,2013-01-17 22:39:00,
2013-01-17 17:54:00,39.1,29.0,30.05,WNW,284,0.0,-999.0,66,-99.99,,,0.00,weatherlink.com 1.10,2013-01-17 22:54:00,
2013-01-17 18:09:00,38.1,28.0,30.06,WNW,284,0.0,-999.0,66,-99.99,,,0.00,weatherlink.com 1.10,2013-01-17 23:09:00,
2013-01-17 18:24:00,38.0,27.0,30.06,WNW,284,0.0,-999.0,66,-99.99,,,0.00,weatherlink.com 1.10,2013-01-17 23:24:00,
2013-01-17 18:39:00,38.2,28.0,30.06,WNW,284,0.0,-999.0,66,-99.99,,,0.00,weatherlink.com 1.10,2013-01-17 23:39:00,
2013-01-17 18:54:00,38.3,28.0,30.07,WNW,284,0.0,-999.0,66,-99.99,,,0.00,weatherlink.com 1.10,2013-01-17 23:54:00,
2013-01-17 19:09:00,38.2,28.0,30.06,WNW,285,0.0,-999.0,66,-99.99,,,0.00,weatherlink.com 1.10,2013-01-18 00:09:00,
2013-01-17 19:24:00,38.0,27.0,30.06,WNW,285,0.0,-999.0,66,-99.99,,,0.00,weatherlink.com 1.10,2013-01-18 00:24:00,
2013-01-17 19:39:00,37.9,27.0,30.06,WNW,285,0.0,-999.0,66,-99.99,,,0.00,weatherlink.com 1.10,2013-01-18 00:39:00,
2013-01-17 19:54:00,37.7,27.0,30.06,WNW,285,0.0,-999.0,66,-99.99,,,0.00,weatherlink.com 1.10,2013-01-18 00:54:00,
2013-01-17 20:09:00,37.5,27.0,30.07,WNW,285,0.0,-999.0,66,-99.99,,,0.00,weatherlink.com 1.10,2013-01-18 01:09:00,
2013-01-17 20:24:00,37.5,27.0,30.06,WNW,285,0.0,-999.0,66,-99.99,,,0.00,weatherlink.com 1.10,2013-01-18 01:24:00,
2013-01-17 20:39:00,37.4,27.0,30.05,WNW,287,0.0,-999.0,66,-99.99,,,0.00,weatherlink.com 1.10,2013-01-18 01:39:00,
2013-01-17 20:54:00,37.2,27.0,30.06,WNW,291,1.0,-999.0,66,-99.99,,,0.00,weatherlink.com 1.10,2013-01-18 01:54:00,
2013-01-17 21:09:00,37.0,27.0,30.05,WNW,295,0.0,-999.0,66,-99.99,,,0.00,weatherlink.com 1.10,2013-01-18 02:09:00,
2013-01-17 21:24:00,37.0,27.0,30.06,WNW,295,0.0,-999.0,66,-99.99,,,0.00,weatherlink.com 1.10,2013-01-18 02:24:00,
2013-01-17 21:39:00,36.8,26.0,30.06,WNW,295,0.0,-999.0,66,-99.99,,,0.00,weatherlink.com 1.10,2013-01-18 02:39:00,
2013-01-17 21:54:00,36.5,26.0,30.05,WNW,295,0.0,-999.0,66,-99.99,,,0.00,weatherlink.com 1.10,2013-01-18 02:54:00,
2013-01-17 22:09:00,36.2,26.0,30.05,WNW,295,0.0,-999.0,67,-99.99,,,0.00,weatherlink.com 1.10,2013-01-18 03:09:00,
2013-01-17 22:24:00,36.1,26.0,30.06,WNW,296,0.0,-999.0,67,-99.99,,,0.00,weatherlink.com 1.10,2013-01-18 03:24:00,
2013-01-17 22:39:00,36.0,26.0,30.05,WNW,296,0.0,-999.0,67,-99.99,,,0.00,weatherlink.com 1.10,2013-01-18 03:39:00,
2013-01-17 22:54:00,35.9,25.0,30.05,WNW,296,0.0,-999.0,66,-99.99,,,0.00,weatherlink.com 1.10,2013-01-18 03:54:00,
2013-01-17 23:09:00,35.8,25.0,30.03,WNW,300,0.0,-999.0,64,-99.99,,,0.00,weatherlink.com 1.10,2013-01-18 04:09:00,
2013-01-17 23:24:00,34.8,24.0,29.99,NW,311,1.0,-999.0,65,-99.99,,,0.00,weatherlink.com 1.10,2013-01-18 04:24:00,
2013-01-17 23:39:00,34.4,23.0,30.02,NNW,328,1.0,-999.0,64,-99.99,,,0.00,weatherlink.com 1.10,2013-01-18 04:39:00,
2013-01-17 23:54:00,33.7,21.0,30.06,NNW,331,2.0,-999.0,61,-99.99,,,0.00,weatherlink.com 1.10,2013-01-18 04:54:00,